createdAt,value
2018-02-21T00:01:41.845Z,1.13
2018-02-21T00:05:05.890Z,1.14
2018-02-21T00:08:29.215Z,1.16
2018-02-21T00:11:52.499Z,1.15
2018-02-21T00:15:16.586Z,1.54
2018-02-21T00:18:39.904Z,1.10
2018-02-21T00:22:03.217Z,1.11
2018-02-21T00:25:26.484Z,1.32
2018-02-21T00:28:49.818Z,0.99
2018-02-21T00:32:13.888Z,1.08
2018-02-21T00:35:37.153Z,1.30
2018-02-21T00:39:00.533Z,0.97
2018-02-21T00:42:23.868Z,1.34
2018-02-21T00:45:47.921Z,1.11
2018-02-21T00:49:11.219Z,1.03
2018-02-21T00:52:35.305Z,1.13
2018-02-21T00:55:59.432Z,1.09
2018-02-21T00:59:22.748Z,1.34
2018-02-21T01:02:45.997Z,1.15
2018-02-21T01:06:09.257Z,1.23
2018-02-21T01:09:32.593Z,1.15
2018-02-21T01:12:55.875Z,1.46
2018-02-21T01:16:20.010Z,1.49
2018-02-21T01:19:43.328Z,1.24
2018-02-21T01:23:06.600Z,1.22
2018-02-21T01:26:29.967Z,1.36
2018-02-21T01:29:53.233Z,1.21
2018-02-21T01:33:16.608Z,1.25
2018-02-21T01:36:39.887Z,1.21
2018-02-21T01:40:04.014Z,1.16
2018-02-21T01:43:27.286Z,1.26
2018-02-21T01:46:50.568Z,1.15
2018-02-21T01:50:14.622Z,1.23
2018-02-21T01:53:37.884Z,0.86
2018-02-21T01:57:01.162Z,0.87
2018-02-21T02:00:24.492Z,0.78
2018-02-21T02:03:47.854Z,1.16
2018-02-21T02:07:11.125Z,0.90
2018-02-21T02:10:34.395Z,0.76
2018-02-21T02:13:57.694Z,0.82
2018-02-21T02:17:21.032Z,0.75
2018-02-21T02:20:44.351Z,0.58
2018-02-21T02:24:07.685Z,0.95
2018-02-21T02:27:31.808Z,0.72
2018-02-21T02:30:55.141Z,0.73
2018-02-21T02:34:19.269Z,1.04
2018-02-21T02:37:42.538Z,0.81
2018-02-21T02:41:06.671Z,1.14
2018-02-21T02:44:29.992Z,0.97
2018-02-21T02:47:53.259Z,0.99
2018-02-21T02:51:16.532Z,1.11
2018-02-21T02:54:40.664Z,0.87
2018-02-21T02:58:04.036Z,0.64
2018-02-21T03:01:27.354Z,1.13
2018-02-21T03:04:50.724Z,1.08
2018-02-21T03:08:14.004Z,0.79
2018-02-21T03:11:38.078Z,1.01
2018-02-21T03:15:01.348Z,0.88
2018-02-21T03:18:25.384Z,0.73
2018-02-21T03:21:48.702Z,0.98
2018-02-21T03:25:11.989Z,0.85
2018-02-21T03:28:36.078Z,0.73
2018-02-21T03:32:00.119Z,1.15
2018-02-21T03:35:23.393Z,0.90
2018-02-21T03:38:46.729Z,0.70
2018-02-21T03:42:10.012Z,0.50
2018-02-21T03:45:34.034Z,0.87
2018-02-21T03:48:58.133Z,1.00
2018-02-21T03:52:22.163Z,0.79
2018-02-21T03:55:46.201Z,1.05
2018-02-21T03:59:10.297Z,0.77
2018-02-21T04:02:34.416Z,0.98
2018-02-21T04:05:57.723Z,0.73
2018-02-21T04:09:20.990Z,0.99
2018-02-21T04:12:44.270Z,0.75
2018-02-21T04:16:07.551Z,0.67
2018-02-21T04:19:31.591Z,0.76
2018-02-21T04:22:55.621Z,0.88
2018-02-21T04:26:19.751Z,0.74
2018-02-21T04:29:43.035Z,0.61
2018-02-21T04:33:07.161Z,0.48
2018-02-21T04:36:30.515Z,0.36
2018-02-21T04:39:53.847Z,0.50
2018-02-21T04:43:17.116Z,0.06
2018-02-21T04:46:41.168Z,0.14
2018-02-21T04:50:05.206Z,0.22
2018-02-21T04:53:29.326Z,0.33
2018-02-21T04:56:55.993Z,0.24
2018-02-21T05:00:23.344Z,0.27
2018-02-21T05:03:47.428Z,0.49
2018-02-21T05:07:10.796Z,0.63
2018-02-21T05:10:34.068Z,0.27
2018-02-21T05:13:58.200Z,0.51
2018-02-21T05:17:21.519Z,0.29
2018-02-21T05:20:44.839Z,0.42
2018-02-21T05:24:08.216Z,0.48
2018-02-21T05:27:32.341Z,0.81
2018-02-21T05:30:55.672Z,0.69
2018-02-21T05:34:19.759Z,0.68
2018-02-21T05:37:43.889Z,0.38
2018-02-21T05:41:07.200Z,0.67
2018-02-21T05:44:30.578Z,0.12
2018-02-21T05:47:53.964Z,0.41
2018-02-21T05:51:18.068Z,0.68
2018-02-21T05:54:41.337Z,0.27
2018-02-21T05:58:04.721Z,0.62
2018-02-21T06:01:27.993Z,0.45
2018-02-21T06:04:51.426Z,0.82
2018-02-21T06:08:15.500Z,0.97
2018-02-21T06:11:38.871Z,1.06
2018-02-21T06:15:02.242Z,0.87
2018-02-21T06:18:25.609Z,0.96
2018-02-21T06:21:48.891Z,0.93
2018-02-21T06:25:12.981Z,0.56
2018-02-21T06:28:37.070Z,1.02
2018-02-21T06:32:01.153Z,0.69
2018-02-21T06:35:25.334Z,0.81
2018-02-21T06:38:49.436Z,1.02
2018-02-21T06:42:13.477Z,1.23
2018-02-21T06:45:37.854Z,1.07
2018-02-21T06:49:02.166Z,0.64
2018-02-21T06:52:26.408Z,0.72
2018-02-21T06:55:49.849Z,0.51
2018-02-21T06:59:13.216Z,0.67
2018-02-21T07:02:36.598Z,1.14
2018-02-21T07:05:59.923Z,0.88
2018-02-21T07:09:24.253Z,0.90
2018-02-21T07:12:47.468Z,1.09
2018-02-21T07:16:10.914Z,0.90
2018-02-21T07:19:35.076Z,0.56
2018-02-21T07:22:58.472Z,0.96
2018-02-21T07:26:22.767Z,0.80
2018-02-21T07:29:46.244Z,1.08
2018-02-21T07:33:09.592Z,1.03
2018-02-21T07:36:33.682Z,0.97
2018-02-21T07:39:57.871Z,1.17
2018-02-21T07:43:21.965Z,0.81
2018-02-21T07:46:46.094Z,0.89
2018-02-21T07:50:10.148Z,0.96
2018-02-21T07:53:34.325Z,1.13
2018-02-21T07:56:58.410Z,1.30
2018-02-21T08:00:22.472Z,1.27
2018-02-21T08:03:45.906Z,1.44
2018-02-21T08:07:09.210Z,1.72
2018-02-21T08:10:32.516Z,1.52
2018-02-21T08:13:55.831Z,1.74
2018-02-21T08:17:19.934Z,1.75
2018-02-21T08:20:43.278Z,1.63
2018-02-21T08:24:06.568Z,1.79
2018-02-21T08:27:29.903Z,1.64
2018-02-21T08:30:53.945Z,1.51
2018-02-21T08:34:19.119Z,1.62
2018-02-21T08:37:43.212Z,1.01
2018-02-21T08:41:07.327Z,1.20
2018-02-21T08:44:30.681Z,1.36
2018-02-21T08:47:54.020Z,1.69
2018-02-21T08:51:18.084Z,1.52
2018-02-21T08:54:41.478Z,1.05
2018-02-21T08:58:04.775Z,0.77
2018-02-21T09:01:28.096Z,0.85
2018-02-21T09:04:51.374Z,1.11
2018-02-21T09:08:14.648Z,1.20
2018-02-21T09:11:37.948Z,1.19
2018-02-21T09:15:01.285Z,1.30
2018-02-21T09:18:24.556Z,1.24
2018-02-21T09:21:47.914Z,1.85
2018-02-21T09:25:12.769Z,1.75
2018-02-21T09:28:36.057Z,1.88
2018-02-21T09:32:00.121Z,1.63
2018-02-21T09:35:23.436Z,1.64
2018-02-21T09:38:46.749Z,1.60
2018-02-21T09:42:10.774Z,1.79
2018-02-21T09:45:34.882Z,1.63
2018-02-21T09:48:58.143Z,1.60
2018-02-21T09:52:21.440Z,1.57
2018-02-21T09:55:45.482Z,1.94
2018-02-21T09:59:09.522Z,1.31
2018-02-21T10:02:33.578Z,1.08
2018-02-21T10:05:56.920Z,1.29
2018-02-21T10:09:21.013Z,1.14
2018-02-21T10:12:45.058Z,1.52
2018-02-21T10:16:09.183Z,1.05
2018-02-21T10:19:33.262Z,1.17
2018-02-21T10:22:56.528Z,1.11
2018-02-21T10:26:19.902Z,1.56
2018-02-21T10:29:43.166Z,1.44
2018-02-21T10:33:06.939Z,1.41
2018-02-21T10:36:30.265Z,1.81
2018-02-21T10:39:53.985Z,1.74
2018-02-21T10:43:18.751Z,1.80
2018-02-21T10:46:43.063Z,1.69
2018-02-21T10:50:07.291Z,1.46
2018-02-21T10:53:31.581Z,1.39
2018-02-21T10:56:55.803Z,1.58
2018-02-21T11:00:24.775Z,1.95
2018-02-21T11:03:48.882Z,1.63
2018-02-21T11:07:12.182Z,2.06
2018-02-21T11:10:36.345Z,1.96
2018-02-21T11:13:59.853Z,1.70
2018-02-21T11:17:23.137Z,1.67
2018-02-21T11:20:47.269Z,1.71
2018-02-21T11:24:10.542Z,1.80
2018-02-21T11:27:33.879Z,1.72
2018-02-21T11:30:57.245Z,1.82
2018-02-21T11:34:20.511Z,1.78
2018-02-21T11:37:44.600Z,1.66
2018-02-21T11:41:07.868Z,1.88
2018-02-21T11:44:31.180Z,1.76
2018-02-21T11:47:54.447Z,1.70
2018-02-21T11:51:17.723Z,1.60
2018-02-21T11:54:41.752Z,1.67
2018-02-21T11:58:05.025Z,1.82
2018-02-21T12:01:28.288Z,1.75
2018-02-21T12:04:51.648Z,1.90
2018-02-21T12:08:15.046Z,2.13
2018-02-21T12:11:39.144Z,2.00
2018-02-21T12:15:03.260Z,2.19
2018-02-21T12:18:26.540Z,1.94
2018-02-21T12:21:50.670Z,2.07
2018-02-21T12:25:14.038Z,2.24
2018-02-21T12:28:37.400Z,1.81
2018-02-21T12:32:01.664Z,2.30
2018-02-21T12:35:25.779Z,2.41
2018-02-21T12:38:54.637Z,2.31
2018-02-21T12:42:18.004Z,2.38
2018-02-21T12:45:41.290Z,2.73
2018-02-21T12:49:05.318Z,2.88
2018-02-21T12:52:29.449Z,2.63
2018-02-21T12:55:53.485Z,2.37
2018-02-21T12:59:16.996Z,2.22
2018-02-21T13:02:40.799Z,2.06
2018-02-21T13:06:04.930Z,2.37
2018-02-21T13:09:28.968Z,2.06
2018-02-21T13:12:53.006Z,2.27
2018-02-21T13:16:17.048Z,2.17
2018-02-21T13:19:41.169Z,2.47
2018-02-21T13:23:04.455Z,2.62
2018-02-21T13:26:28.490Z,2.51
2018-02-21T13:29:52.614Z,2.37
2018-02-21T13:33:15.891Z,2.68
2018-02-21T13:36:39.949Z,2.53
2018-02-21T13:40:03.224Z,2.96
2018-02-21T13:43:26.504Z,3.06
2018-02-21T13:46:49.803Z,2.74
2018-02-21T13:50:13.088Z,2.43
2018-02-21T13:53:36.356Z,2.70
2018-02-21T13:56:59.729Z,2.79
2018-02-21T14:00:23.047Z,2.84
2018-02-21T14:03:46.364Z,2.67
2018-02-21T14:07:09.683Z,2.92
2018-02-21T14:10:33.063Z,2.42
2018-02-21T14:13:57.101Z,2.89
2018-02-21T14:17:21.216Z,2.17
2018-02-21T14:20:44.546Z,2.06
2018-02-21T14:24:07.835Z,2.11
2018-02-21T14:27:31.945Z,2.34
2018-02-21T14:30:55.217Z,2.07
2018-02-21T14:34:18.609Z,2.21
2018-02-21T14:37:43.931Z,2.31
2018-02-21T14:41:07.191Z,2.21
2018-02-21T14:44:33.673Z,2.04
2018-02-21T14:47:58.994Z,2.23
2018-02-21T14:51:23.149Z,1.86
2018-02-21T14:54:48.240Z,2.25
2018-02-21T14:58:12.366Z,1.99
2018-02-21T15:01:35.655Z,2.31
2018-02-21T15:04:59.937Z,2.12
2018-02-21T15:08:24.992Z,2.42
2018-02-21T15:11:48.350Z,2.36
2018-02-21T15:15:11.632Z,2.08
2018-02-21T15:18:35.009Z,2.11
2018-02-21T15:21:59.067Z,1.98
2018-02-21T15:25:22.388Z,2.27
2018-02-21T15:28:45.663Z,2.11
2018-02-21T15:32:08.994Z,2.04
2018-02-21T15:35:32.249Z,2.03
2018-02-21T15:38:55.580Z,2.06
2018-02-21T15:42:18.866Z,1.96
2018-02-21T15:45:42.133Z,2.05
2018-02-21T15:49:06.183Z,1.90
2018-02-21T15:52:29.531Z,1.79
2018-02-21T15:55:53.608Z,2.11
2018-02-21T15:59:16.870Z,1.88
2018-02-21T16:02:40.193Z,1.64
2018-02-21T16:06:03.511Z,1.58
2018-02-21T16:09:26.755Z,1.91
2018-02-21T16:12:50.101Z,1.85
2018-02-21T16:16:14.141Z,1.61
2018-02-21T16:19:38.182Z,1.79
2018-02-21T16:23:02.213Z,1.70
2018-02-21T16:26:26.339Z,1.72
2018-02-21T16:29:49.615Z,1.67
2018-02-21T16:33:12.893Z,1.38
2018-02-21T16:36:37.019Z,1.67
2018-02-21T16:40:00.336Z,1.43
2018-02-21T16:43:23.613Z,1.32
2018-02-21T16:46:47.743Z,1.33
2018-02-21T16:50:11.013Z,1.46
2018-02-21T16:53:35.149Z,1.64
2018-02-21T16:56:58.429Z,1.35
2018-02-21T17:00:22.482Z,1.32
2018-02-21T17:03:45.755Z,1.41
2018-02-21T17:07:09.142Z,1.35
2018-02-21T17:10:32.425Z,1.40
2018-02-21T17:13:56.550Z,1.45
2018-02-21T17:17:19.826Z,1.29
2018-02-21T17:20:44.920Z,1.42
2018-02-21T17:24:08.300Z,1.28
2018-02-21T17:27:31.617Z,1.42
2018-02-21T17:30:55.759Z,1.22
2018-02-21T17:34:19.075Z,1.43
2018-02-21T17:37:42.354Z,1.38
2018-02-21T17:41:12.051Z,1.38
2018-02-21T17:44:35.459Z,1.29
2018-02-21T17:47:58.703Z,1.21
2018-02-21T17:51:22.072Z,0.99
2018-02-21T17:54:45.345Z,1.05
2018-02-21T17:58:09.382Z,1.08
2018-02-21T18:01:33.419Z,1.17
2018-02-21T18:04:57.447Z,1.12
2018-02-21T18:08:21.583Z,1.16
2018-02-21T18:11:44.837Z,1.04
2018-02-21T18:15:08.113Z,1.21
2018-02-21T18:18:31.391Z,1.16
2018-02-21T18:21:55.481Z,1.20
2018-02-21T18:25:19.521Z,0.87
2018-02-21T18:28:43.604Z,1.05
2018-02-21T18:32:07.671Z,1.15
2018-02-21T18:43:26.409Z,1.27
2018-02-21T18:46:49.829Z,1.09
2018-02-21T18:50:13.135Z,1.42
2018-02-21T18:53:36.444Z,1.43
2018-02-21T18:56:59.849Z,1.18
2018-02-21T19:00:23.922Z,0.97
2018-02-21T19:03:47.207Z,1.26
2018-02-21T19:07:11.283Z,1.16
2018-02-21T19:10:35.614Z,1.50
2018-02-21T19:13:58.917Z,1.00
2018-02-21T19:17:22.174Z,1.40
2018-02-21T19:20:46.449Z,1.24
2018-02-21T19:24:10.584Z,1.46
2018-02-21T19:27:33.952Z,1.29
2018-02-21T19:30:57.227Z,1.45
2018-02-21T19:34:21.413Z,1.23
2018-02-21T19:37:45.475Z,1.27
2018-02-21T19:41:08.739Z,1.42
2018-02-21T19:44:33.327Z,1.49
2018-02-21T19:47:57.485Z,1.43
2018-02-21T19:51:20.801Z,1.46
2018-02-21T19:54:44.111Z,1.35
2018-02-21T19:58:07.474Z,1.31
2018-02-21T20:01:31.602Z,1.62
2018-02-21T20:04:54.973Z,1.55
2018-02-21T20:08:19.112Z,1.58
2018-02-21T20:11:42.478Z,1.40
2018-02-21T20:15:06.562Z,1.54
2018-02-21T20:18:29.937Z,1.47
2018-02-21T20:21:53.259Z,1.72
2018-02-21T20:25:16.565Z,1.51
2018-02-21T20:28:40.298Z,1.74
2018-02-21T20:32:03.595Z,1.63
2018-02-21T20:35:26.921Z,1.34
2018-02-21T20:38:50.235Z,1.81
2018-02-21T20:42:13.521Z,1.60
2018-02-21T20:45:36.832Z,1.71
2018-02-21T20:49:00.219Z,1.79
2018-02-21T20:52:23.518Z,1.79
2018-02-21T20:55:46.834Z,1.62
2018-02-21T20:59:10.146Z,1.90
2018-02-21T21:02:34.288Z,1.52
2018-02-21T21:05:57.632Z,1.74
2018-02-21T21:09:20.946Z,1.47
2018-02-21T21:12:44.320Z,1.63
2018-02-21T21:16:08.461Z,1.43
2018-02-21T21:19:31.774Z,1.34
2018-02-21T21:22:55.146Z,1.69
2018-02-21T21:26:18.431Z,1.57
2018-02-21T21:29:42.506Z,1.71
2018-02-21T21:33:05.800Z,1.53
2018-02-21T21:36:29.067Z,1.36
2018-02-21T21:39:52.411Z,1.63
2018-02-21T21:43:15.785Z,1.59
2018-02-21T21:46:39.829Z,1.40
2018-02-21T21:50:04.015Z,1.61
2018-02-21T21:53:28.027Z,1.70
2018-02-21T21:56:51.291Z,1.55
2018-02-21T22:00:14.626Z,1.92
2018-02-21T22:03:37.933Z,1.64
2018-02-21T22:07:01.240Z,1.33
2018-02-21T22:10:24.555Z,1.39
2018-02-21T22:13:47.865Z,1.62
2018-02-21T22:17:11.900Z,1.67
2018-02-21T22:20:36.120Z,1.83
2018-02-21T22:23:59.501Z,1.95
2018-02-21T22:27:22.796Z,2.00
2018-02-21T22:30:46.061Z,1.78
2018-02-21T22:34:09.337Z,1.59
2018-02-21T22:37:32.721Z,1.42
2018-02-21T22:40:56.089Z,1.42
2018-02-21T22:44:19.383Z,1.41
2018-02-21T22:47:43.483Z,1.59
2018-02-21T22:51:06.816Z,1.29
2018-02-21T22:54:30.116Z,1.41
2018-02-21T22:57:53.455Z,1.57
2018-02-21T23:01:16.788Z,1.27
2018-02-21T23:04:40.872Z,1.77
2018-02-21T23:08:05.075Z,1.57
2018-02-21T23:11:29.122Z,1.45
2018-02-21T23:14:52.430Z,1.25
2018-02-21T23:18:16.521Z,1.14
2018-02-21T23:21:39.826Z,1.26
2018-02-21T23:25:04.223Z,1.09
2018-02-21T23:28:27.547Z,1.03
2018-02-21T23:31:50.856Z,1.21
2018-02-21T23:35:14.983Z,1.02
2018-02-21T23:38:38.259Z,0.99
2018-02-21T23:42:04.730Z,0.93
2018-02-21T23:45:28.113Z,0.98
2018-02-21T23:56:51.548Z,1.19
